sensor_id;sensor_type;location;lat;lon;timestamp;temperature;humidity
2453;DHT22;63678;47.994;7.854;2023-02-15T00:00:01;0.30;99.90
2453;DHT22;63678;47.994;7.854;2023-02-15T00:02:36;0.30;99.90
2453;DHT22;63678;47.994;7.854;2023-02-15T00:05:08;0.20;99.90
2453;DHT22;63678;47.994;7.854;2023-02-15T00:07:41;0.40;99.90
2453;DHT22;63678;47.994;7.854;2023-02-15T00:10:13;0.30;99.90
2453;DHT22;63678;47.994;7.854;2023-02-15T00:12:46;0.40;99.90
2453;DHT22;63678;47.994;7.854;2023-02-15T00:15:18;0.40;99.90
2453;DHT22;63678;47.994;7.854;2023-02-15T00:17:50;0.40;99.90
2453;DHT22;63678;47.994;7.854;2023-02-15T00:20:22;0.40;99.90
2453;DHT22;63678;47.994;7.854;2023-02-15T00:22:55;0.30;99.90
2453;DHT22;63678;47.994;7.854;2023-02-15T00:28:00;0.10;99.90
2453;DHT22;63678;47.994;7.854;2023-02-15T00:30:32;0.20;99.90
2453;DHT22;63678;47.994;7.854;2023-02-15T00:33:05;0.10;99.90
2453;DHT22;63678;47.994;7.854;2023-02-15T00:35:37;0.20;99.90
2453;DHT22;63678;47.994;7.854;2023-02-15T00:38:09;0.30;99.90
2453;DHT22;63678;47.994;7.854;2023-02-15T00:40:42;0.00;99.90
2453;DHT22;63678;47.994;7.854;2023-02-15T00:43:15;0.00;99.90
2453;DHT22;63678;47.994;7.854;2023-02-15T00:45:47;0.00;99.90
2453;DHT22;63678;47.994;7.854;2023-02-15T00:48:21;-0.10;99.90
2453;DHT22;63678;47.994;7.854;2023-02-15T00:50:56;0.00;99.90
2453;DHT22;63678;47.994;7.854;2023-02-15T00:53:29;0.00;99.90
2453;DHT22;63678;47.994;7.854;2023-02-15T00:56:02;0.00;99.90
2453;DHT22;63678;47.994;7.854;2023-02-15T00:58:35;0.20;99.90
2453;DHT22;63678;47.994;7.854;2023-02-15T01:01:10;0.20;99.90
2453;DHT22;63678;47.994;7.854;2023-02-15T01:03:44;0.30;99.90
2453;DHT22;63678;47.994;7.854;2023-02-15T01:06:18;0.20;99.90
2453;DHT22;63678;47.994;7.854;2023-02-15T01:08:51;0.20;99.90
2453;DHT22;63678;47.994;7.854;2023-02-15T01:11:24;0.20;99.90
2453;DHT22;63678;47.994;7.854;2023-02-15T01:13:57;0.20;99.90
2453;DHT22;63678;47.994;7.854;2023-02-15T01:16:30;0.10;99.90
2453;DHT22;63678;47.994;7.854;2023-02-15T01:19:03;0.20;99.90
2453;DHT22;63678;47.994;7.854;2023-02-15T01:21:35;0.10;99.90
2453;DHT22;63678;47.994;7.854;2023-02-15T01:24:14;0.20;99.90
2453;DHT22;63678;47.994;7.854;2023-02-15T01:26:46;0.30;99.90
2453;DHT22;63678;47.994;7.854;2023-02-15T01:29:19;0.40;99.90
2453;DHT22;63678;47.994;7.854;2023-02-15T01:31:51;0.60;99.90
2453;DHT22;63678;47.994;7.854;2023-02-15T01:34:24;0.60;99.90
2453;DHT22;63678;47.994;7.854;2023-02-15T01:36:56;0.80;99.90
2453;DHT22;63678;47.994;7.854;2023-02-15T01:39:28;0.90;99.90
2453;DHT22;63678;47.994;7.854;2023-02-15T01:42:00;1.00;99.90
2453;DHT22;63678;47.994;7.854;2023-02-15T01:47:40;0.90;99.90
2453;DHT22;63678;47.994;7.854;2023-02-15T01:50:38;0.90;99.90
2453;DHT22;63678;47.994;7.854;2023-02-15T01:56:07;0.80;99.90
2453;DHT22;63678;47.994;7.854;2023-02-15T01:58:42;0.60;99.90
2453;DHT22;63678;47.994;7.854;2023-02-15T02:01:15;0.60;99.90
2453;DHT22;63678;47.994;7.854;2023-02-15T02:06:49;0.50;99.90
2453;DHT22;63678;47.994;7.854;2023-02-15T02:09:22;0.40;99.90
2453;DHT22;63678;47.994;7.854;2023-02-15T02:11:55;0.50;99.90
2453;DHT22;63678;47.994;7.854;2023-02-15T02:14:27;0.50;99.90
2453;DHT22;63678;47.994;7.854;2023-02-15T02:23:16;0.60;99.90
2453;DHT22;63678;47.994;7.854;2023-02-15T02:29:33;0.70;99.90
2453;DHT22;63678;47.994;7.854;2023-02-15T02:36:52;0.50;99.90
2453;DHT22;63678;47.994;7.854;2023-02-15T02:39:49;0.70;99.90
2453;DHT22;63678;47.994;7.854;2023-02-15T02:42:40;0.70;99.90
2453;DHT22;63678;47.994;7.854;2023-02-15T02:48:00;0.70;99.90
2453;DHT22;63678;47.994;7.854;2023-02-15T02:50:39;0.70;99.90
2453;DHT22;63678;47.994;7.854;2023-02-15T02:53:12;0.50;99.90
2453;DHT22;63678;47.994;7.854;2023-02-15T02:56:11;0.50;99.90
2453;DHT22;63678;47.994;7.854;2023-02-15T02:59:10;0.50;99.90
2453;DHT22;63678;47.994;7.854;2023-02-15T03:01:54;0.30;99.90
2453;DHT22;63678;47.994;7.854;2023-02-15T03:04:52;0.20;99.90
2453;DHT22;63678;47.994;7.854;2023-02-15T03:07:31;0.00;99.90
2453;DHT22;63678;47.994;7.854;2023-02-15T03:10:07;0.00;99.90
2453;DHT22;63678;47.994;7.854;2023-02-15T03:12:40;0.00;99.90
2453;DHT22;63678;47.994;7.854;2023-02-15T03:15:21;0.10;99.90
2453;DHT22;63678;47.994;7.854;2023-02-15T03:18:00;0.20;99.90
2453;DHT22;63678;47.994;7.854;2023-02-15T03:20:36;0.30;99.90
2453;DHT22;63678;47.994;7.854;2023-02-15T03:23:30;0.40;99.90
2453;DHT22;63678;47.994;7.854;2023-02-15T03:26:06;0.40;99.90
2453;DHT22;63678;47.994;7.854;2023-02-15T03:28:43;0.40;99.90
2453;DHT22;63678;47.994;7.854;2023-02-15T03:31:18;0.60;99.90
2453;DHT22;63678;47.994;7.854;2023-02-15T03:33:58;0.70;99.90
2453;DHT22;63678;47.994;7.854;2023-02-15T03:42:18;0.60;99.90
2453;DHT22;63678;47.994;7.854;2023-02-15T03:45:13;0.70;99.90
2453;DHT22;63678;47.994;7.854;2023-02-15T03:47:50;0.70;99.90
2453;DHT22;63678;47.994;7.854;2023-02-15T03:50:29;0.70;99.90
2453;DHT22;63678;47.994;7.854;2023-02-15T03:53:22;0.60;99.90
2453;DHT22;63678;47.994;7.854;2023-02-15T03:55:55;0.60;99.90
2453;DHT22;63678;47.994;7.854;2023-02-15T03:58:28;0.60;99.90
2453;DHT22;63678;47.994;7.854;2023-02-15T04:04:35;0.10;99.90
2453;DHT22;63678;47.994;7.854;2023-02-15T04:07:09;0.10;99.90
2453;DHT22;63678;47.994;7.854;2023-02-15T04:09:42;0.10;99.90
2453;DHT22;63678;47.994;7.854;2023-02-15T04:12:32;0.40;99.90
2453;DHT22;63678;47.994;7.854;2023-02-15T04:15:05;0.50;99.90
2453;DHT22;63678;47.994;7.854;2023-02-15T04:17:56;0.40;99.90
2453;DHT22;63678;47.994;7.854;2023-02-15T04:20:50;0.30;99.90
2453;DHT22;63678;47.994;7.854;2023-02-15T04:24:02;0.30;99.90
2453;DHT22;63678;47.994;7.854;2023-02-15T04:26:53;0.30;99.90
2453;DHT22;63678;47.994;7.854;2023-02-15T04:29:27;0.10;99.90
2453;DHT22;63678;47.994;7.854;2023-02-15T04:32:00;0.30;99.90
2453;DHT22;63678;47.994;7.854;2023-02-15T04:34:34;0.40;99.90
2453;DHT22;63678;47.994;7.854;2023-02-15T04:37:06;0.30;99.90
2453;DHT22;63678;47.994;7.854;2023-02-15T04:39:38;0.30;99.90
2453;DHT22;63678;47.994;7.854;2023-02-15T04:42:10;0.70;99.90
2453;DHT22;63678;47.994;7.854;2023-02-15T04:44:43;0.70;99.90
2453;DHT22;63678;47.994;7.854;2023-02-15T04:47:15;0.50;99.90
2453;DHT22;63678;47.994;7.854;2023-02-15T04:52:21;0.50;99.90
2453;DHT22;63678;47.994;7.854;2023-02-15T04:54:54;0.50;99.90
2453;DHT22;63678;47.994;7.854;2023-02-15T04:57:26;0.60;99.90
2453;DHT22;63678;47.994;7.854;2023-02-15T04:59:58;0.50;99.90
2453;DHT22;63678;47.994;7.854;2023-02-15T05:02:32;0.60;99.90
2453;DHT22;63678;47.994;7.854;2023-02-15T05:05:04;0.50;99.90
2453;DHT22;63678;47.994;7.854;2023-02-15T05:07:37;0.30;99.90
2453;DHT22;63678;47.994;7.854;2023-02-15T05:10:10;0.20;99.90
2453;DHT22;63678;47.994;7.854;2023-02-15T05:12:42;0.20;99.90
2453;DHT22;63678;47.994;7.854;2023-02-15T05:15:15;0.20;99.90
2453;DHT22;63678;47.994;7.854;2023-02-15T05:17:48;0.00;99.90
2453;DHT22;63678;47.994;7.854;2023-02-15T05:20:20;0.00;99.90
2453;DHT22;63678;47.994;7.854;2023-02-15T05:22:55;1.00;99.90
2453;DHT22;63678;47.994;7.854;2023-02-15T05:25:27;-0.10;99.90
2453;DHT22;63678;47.994;7.854;2023-02-15T05:31:12;-0.30;99.90
2453;DHT22;63678;47.994;7.854;2023-02-15T05:36:18;-0.20;99.90
2453;DHT22;63678;47.994;7.854;2023-02-15T05:38:50;-0.10;99.90
2453;DHT22;63678;47.994;7.854;2023-02-15T05:41:22;-0.10;99.90
2453;DHT22;63678;47.994;7.854;2023-02-15T05:43:56;-0.20;99.90
2453;DHT22;63678;47.994;7.854;2023-02-15T05:46:28;-0.30;99.90
2453;DHT22;63678;47.994;7.854;2023-02-15T05:49:03;-0.30;99.90
2453;DHT22;63678;47.994;7.854;2023-02-15T05:51:35;-0.30;99.90
2453;DHT22;63678;47.994;7.854;2023-02-15T05:54:08;-0.30;99.90
2453;DHT22;63678;47.994;7.854;2023-02-15T05:59:13;-0.30;99.90
2453;DHT22;63678;47.994;7.854;2023-02-15T06:04:19;-0.20;99.90
2453;DHT22;63678;47.994;7.854;2023-02-15T06:06:52;-0.20;99.90
2453;DHT22;63678;47.994;7.854;2023-02-15T06:09:45;-0.30;99.90
2453;DHT22;63678;47.994;7.854;2023-02-15T06:12:17;-0.30;99.90
2453;DHT22;63678;47.994;7.854;2023-02-15T06:14:49;-0.30;99.90
2453;DHT22;63678;47.994;7.854;2023-02-15T06:17:22;-0.20;99.90
2453;DHT22;63678;47.994;7.854;2023-02-15T06:22:27;-0.30;99.90
2453;DHT22;63678;47.994;7.854;2023-02-15T06:24:59;-0.50;99.90
2453;DHT22;63678;47.994;7.854;2023-02-15T06:27:32;-0.40;99.90
2453;DHT22;63678;47.994;7.854;2023-02-15T06:30:05;-0.40;99.90
2453;DHT22;63678;47.994;7.854;2023-02-15T06:35:31;-0.20;99.90
2453;DHT22;63678;47.994;7.854;2023-02-15T06:38:03;-0.20;99.90
2453;DHT22;63678;47.994;7.854;2023-02-15T06:40:36;-0.10;99.90
2453;DHT22;63678;47.994;7.854;2023-02-15T06:43:08;-0.10;99.90
2453;DHT22;63678;47.994;7.854;2023-02-15T06:45:41;0.00;99.90
2453;DHT22;63678;47.994;7.854;2023-02-15T06:48:15;0.10;99.90
2453;DHT22;63678;47.994;7.854;2023-02-15T06:50:47;-0.20;99.90
2453;DHT22;63678;47.994;7.854;2023-02-15T06:53:37;-0.20;99.90
2453;DHT22;63678;47.994;7.854;2023-02-15T06:56:11;-0.30;99.90
2453;DHT22;63678;47.994;7.854;2023-02-15T06:58:43;-0.20;99.90
2453;DHT22;63678;47.994;7.854;2023-02-15T07:04:18;-0.10;99.90
2453;DHT22;63678;47.994;7.854;2023-02-15T07:07:11;0.20;99.90
2453;DHT22;63678;47.994;7.854;2023-02-15T07:09:44;0.20;99.90
2453;DHT22;63678;47.994;7.854;2023-02-15T07:12:39;0.30;99.90
2453;DHT22;63678;47.994;7.854;2023-02-15T07:15:16;0.30;99.90
2453;DHT22;63678;47.994;7.854;2023-02-15T07:17:51;0.20;99.90
2453;DHT22;63678;47.994;7.854;2023-02-15T07:20:23;0.30;99.90
2453;DHT22;63678;47.994;7.854;2023-02-15T07:22:56;0.60;99.90
2453;DHT22;63678;47.994;7.854;2023-02-15T07:25:29;0.80;99.90
2453;DHT22;63678;47.994;7.854;2023-02-15T07:28:03;0.90;99.90
2453;DHT22;63678;47.994;7.854;2023-02-15T07:30:38;1.00;99.90
2453;DHT22;63678;47.994;7.854;2023-02-15T07:33:10;1.00;99.90
2453;DHT22;63678;47.994;7.854;2023-02-15T07:36:02;1.00;99.90
2453;DHT22;63678;47.994;7.854;2023-02-15T07:38:40;0.70;99.90
2453;DHT22;63678;47.994;7.854;2023-02-15T07:41:14;0.70;99.90
2453;DHT22;63678;47.994;7.854;2023-02-15T07:44:15;0.80;99.90
2453;DHT22;63678;47.994;7.854;2023-02-15T07:49:21;1.00;99.90
2453;DHT22;63678;47.994;7.854;2023-02-15T07:51:54;1.20;99.90
2453;DHT22;63678;47.994;7.854;2023-02-15T07:54:26;1.30;99.90
2453;DHT22;63678;47.994;7.854;2023-02-15T07:57:00;1.50;99.90
2453;DHT22;63678;47.994;7.854;2023-02-15T07:59:34;1.40;99.90
2453;DHT22;63678;47.994;7.854;2023-02-15T08:02:10;1.10;99.90
2453;DHT22;63678;47.994;7.854;2023-02-15T08:04:43;0.70;99.90
2453;DHT22;63678;47.994;7.854;2023-02-15T08:07:15;1.00;99.90
2453;DHT22;63678;47.994;7.854;2023-02-15T08:09:48;0.90;99.90
2453;DHT22;63678;47.994;7.854;2023-02-15T08:12:21;1.00;99.90
2453;DHT22;63678;47.994;7.854;2023-02-15T08:14:54;0.90;99.90
2453;DHT22;63678;47.994;7.854;2023-02-15T08:17:26;0.90;99.90
2453;DHT22;63678;47.994;7.854;2023-02-15T08:19:58;0.90;99.90
2453;DHT22;63678;47.994;7.854;2023-02-15T08:22:32;0.80;99.90
2453;DHT22;63678;47.994;7.854;2023-02-15T08:25:25;0.80;99.90
2453;DHT22;63678;47.994;7.854;2023-02-15T08:27:58;0.80;99.90
2453;DHT22;63678;47.994;7.854;2023-02-15T08:30:31;0.90;99.90
2453;DHT22;63678;47.994;7.854;2023-02-15T08:33:06;1.10;99.90
2453;DHT22;63678;47.994;7.854;2023-02-15T08:43:19;2.20;99.90
2453;DHT22;63678;47.994;7.854;2023-02-15T08:45:52;2.10;99.90
2453;DHT22;63678;47.994;7.854;2023-02-15T08:48:25;2.20;99.90
2453;DHT22;63678;47.994;7.854;2023-02-15T08:50:57;2.30;99.90
2453;DHT22;63678;47.994;7.854;2023-02-15T08:53:31;2.30;99.90
2453;DHT22;63678;47.994;7.854;2023-02-15T08:56:05;2.50;99.90
2453;DHT22;63678;47.994;7.854;2023-02-15T08:58:59;2.40;99.90
2453;DHT22;63678;47.994;7.854;2023-02-15T09:01:34;2.40;99.90
2453;DHT22;63678;47.994;7.854;2023-02-15T09:04:10;2.40;99.90
2453;DHT22;63678;47.994;7.854;2023-02-15T09:06:44;2.30;99.90
2453;DHT22;63678;47.994;7.854;2023-02-15T09:12:11;2.60;99.90
2453;DHT22;63678;47.994;7.854;2023-02-15T09:14:44;3.00;99.90
2453;DHT22;63678;47.994;7.854;2023-02-15T09:20:10;3.50;99.90
2453;DHT22;63678;47.994;7.854;2023-02-15T09:25:37;4.10;99.90
2453;DHT22;63678;47.994;7.854;2023-02-15T09:28:10;4.20;99.90
2453;DHT22;63678;47.994;7.854;2023-02-15T09:30:44;4.20;99.90
2453;DHT22;63678;47.994;7.854;2023-02-15T09:35:50;4.50;99.90
2453;DHT22;63678;47.994;7.854;2023-02-15T09:38:22;4.60;99.90
2453;DHT22;63678;47.994;7.854;2023-02-15T09:57:04;4.10;99.90
2453;DHT22;63678;47.994;7.854;2023-02-15T10:21:11;7.40;99.90
2453;DHT22;63678;47.994;7.854;2023-02-15T10:27:21;7.00;99.90
2453;DHT22;63678;47.994;7.854;2023-02-15T10:30:06;7.20;99.90
2453;DHT22;63678;47.994;7.854;2023-02-15T10:33:03;6.70;99.90
2453;DHT22;63678;47.994;7.854;2023-02-15T10:42:50;7.00;99.90
2453;DHT22;63678;47.994;7.854;2023-02-15T10:57:36;6.90;99.90
2453;DHT22;63678;47.994;7.854;2023-02-15T11:00:44;7.10;99.90
2453;DHT22;63678;47.994;7.854;2023-02-15T11:06:16;7.00;99.90
2453;DHT22;63678;47.994;7.854;2023-02-15T11:08:56;6.80;99.90
2453;DHT22;63678;47.994;7.854;2023-02-15T11:11:38;6.60;99.90
2453;DHT22;63678;47.994;7.854;2023-02-15T11:14:23;6.70;99.90
2453;DHT22;63678;47.994;7.854;2023-02-15T11:17:23;6.70;99.90
2453;DHT22;63678;47.994;7.854;2023-02-15T11:20:08;6.50;99.90
2453;DHT22;63678;47.994;7.854;2023-02-15T11:23:02;6.40;99.90
2453;DHT22;63678;47.994;7.854;2023-02-15T11:28:19;6.90;99.90
2453;DHT22;63678;47.994;7.854;2023-02-15T11:30:56;6.90;99.90
2453;DHT22;63678;47.994;7.854;2023-02-15T11:33:38;7.00;99.90
2453;DHT22;63678;47.994;7.854;2023-02-15T11:36:20;7.40;99.90
2453;DHT22;63678;47.994;7.854;2023-02-15T11:39:18;7.30;99.90
2453;DHT22;63678;47.994;7.854;2023-02-15T11:41:55;7.40;99.90
2453;DHT22;63678;47.994;7.854;2023-02-15T11:44:42;7.60;99.90
2453;DHT22;63678;47.994;7.854;2023-02-15T11:49:50;8.20;99.90
2453;DHT22;63678;47.994;7.854;2023-02-15T11:52:22;8.00;99.90
2453;DHT22;63678;47.994;7.854;2023-02-15T12:00:12;8.10;99.90
2453;DHT22;63678;47.994;7.854;2023-02-15T12:02:52;8.30;99.90
2453;DHT22;63678;47.994;7.854;2023-02-15T12:08:20;8.40;99.90
2453;DHT22;63678;47.994;7.854;2023-02-15T12:11:12;9.00;99.90
2453;DHT22;63678;47.994;7.854;2023-02-15T12:14:00;8.90;99.90
2453;DHT22;63678;47.994;7.854;2023-02-15T12:19:29;9.20;99.90
2453;DHT22;63678;47.994;7.854;2023-02-15T12:22:05;9.40;99.90
2453;DHT22;63678;47.994;7.854;2023-02-15T12:24:46;9.60;99.90
2453;DHT22;63678;47.994;7.854;2023-02-15T12:27:27;9.70;99.90
2453;DHT22;63678;47.994;7.854;2023-02-15T12:30:03;9.80;99.90
2453;DHT22;63678;47.994;7.854;2023-02-15T12:32:54;9.80;99.90
2453;DHT22;63678;47.994;7.854;2023-02-15T12:35:34;9.70;99.90
2453;DHT22;63678;47.994;7.854;2023-02-15T12:41:01;9.70;99.90
2453;DHT22;63678;47.994;7.854;2023-02-15T12:43:37;9.90;99.90
2453;DHT22;63678;47.994;7.854;2023-02-15T12:46:24;10.10;99.90
2453;DHT22;63678;47.994;7.854;2023-02-15T12:49:19;10.10;99.90
2453;DHT22;63678;47.994;7.854;2023-02-15T12:51:55;10.30;99.90
2453;DHT22;63678;47.994;7.854;2023-02-15T12:54:38;10.40;99.90
2453;DHT22;63678;47.994;7.854;2023-02-15T13:00:24;10.40;99.90
2453;DHT22;63678;47.994;7.854;2023-02-15T13:03:00;10.30;99.90
2453;DHT22;63678;47.994;7.854;2023-02-15T13:05:41;10.30;99.90
2453;DHT22;63678;47.994;7.854;2023-02-15T13:08:19;10.20;99.90
2453;DHT22;63678;47.994;7.854;2023-02-15T13:11:04;10.50;99.90
2453;DHT22;63678;47.994;7.854;2023-02-15T13:13:58;10.50;99.90
2453;DHT22;63678;47.994;7.854;2023-02-15T13:16:37;10.40;99.90
2453;DHT22;63678;47.994;7.854;2023-02-15T13:19:26;10.40;99.90
2453;DHT22;63678;47.994;7.854;2023-02-15T13:22:08;10.40;99.90
2453;DHT22;63678;47.994;7.854;2023-02-15T13:24:48;10.50;99.90
2453;DHT22;63678;47.994;7.854;2023-02-15T13:27:35;10.40;99.90
2453;DHT22;63678;47.994;7.854;2023-02-15T13:30:23;10.50;99.90
2453;DHT22;63678;47.994;7.854;2023-02-15T13:33:28;10.30;99.90
2453;DHT22;63678;47.994;7.854;2023-02-15T13:54:13;10.20;99.90
2453;DHT22;63678;47.994;7.854;2023-02-15T14:16:41;10.20;99.90
2453;DHT22;63678;47.994;7.854;2023-02-15T14:19:43;10.20;99.90
2453;DHT22;63678;47.994;7.854;2023-02-15T14:22:26;10.20;99.90
2453;DHT22;63678;47.994;7.854;2023-02-15T14:31:46;10.20;99.90
2453;DHT22;63678;47.994;7.854;2023-02-15T14:34:30;10.20;99.90
2453;DHT22;63678;47.994;7.854;2023-02-15T14:37:11;10.10;99.90
2453;DHT22;63678;47.994;7.854;2023-02-15T14:40:26;10.20;99.90
2453;DHT22;63678;47.994;7.854;2023-02-15T14:48:55;10.30;99.90
2453;DHT22;63678;47.994;7.854;2023-02-15T15:04:45;10.20;99.90
2453;DHT22;63678;47.994;7.854;2023-02-15T15:07:47;10.20;99.90
2453;DHT22;63678;47.994;7.854;2023-02-15T15:13:36;10.20;99.90
2453;DHT22;63678;47.994;7.854;2023-02-15T15:19:11;10.10;99.90
2453;DHT22;63678;47.994;7.854;2023-02-15T15:27:40;10.60;99.90
2453;DHT22;63678;47.994;7.854;2023-02-15T15:45:45;9.30;99.90
2453;DHT22;63678;47.994;7.854;2023-02-15T15:48:39;9.20;99.90
2453;DHT22;63678;47.994;7.854;2023-02-15T15:51:18;9.10;99.90
2453;DHT22;63678;47.994;7.854;2023-02-15T15:53:53;9.00;99.90
2453;DHT22;63678;47.994;7.854;2023-02-15T15:56:31;8.90;99.90
2453;DHT22;63678;47.994;7.854;2023-02-15T15:59:07;8.90;99.90
2453;DHT22;63678;47.994;7.854;2023-02-15T16:01:47;8.80;99.90
2453;DHT22;63678;47.994;7.854;2023-02-15T16:04:28;8.70;99.90
2453;DHT22;63678;47.994;7.854;2023-02-15T16:10:00;8.50;99.90
2453;DHT22;63678;47.994;7.854;2023-02-15T16:12:36;8.40;99.90
2453;DHT22;63678;47.994;7.854;2023-02-15T16:15:21;8.30;99.90
2453;DHT22;63678;47.994;7.854;2023-02-15T16:17:57;8.30;99.90
2453;DHT22;63678;47.994;7.854;2023-02-15T16:20:35;8.20;99.90
2453;DHT22;63678;47.994;7.854;2023-02-15T16:26:36;6.60;99.90
2453;DHT22;63678;47.994;7.854;2023-02-15T16:29:30;7.90;99.90
2453;DHT22;63678;47.994;7.854;2023-02-15T16:32:16;7.80;99.90
2453;DHT22;63678;47.994;7.854;2023-02-15T16:37:34;7.60;99.90
2453;DHT22;63678;47.994;7.854;2023-02-15T16:43:00;7.40;99.90
2453;DHT22;63678;47.994;7.854;2023-02-15T16:45:34;7.30;99.90
2453;DHT22;63678;47.994;7.854;2023-02-15T16:48:16;7.10;99.90
2453;DHT22;63678;47.994;7.854;2023-02-15T16:50:54;7.10;99.90
2453;DHT22;63678;47.994;7.854;2023-02-15T16:53:29;7.00;99.90
2453;DHT22;63678;47.994;7.854;2023-02-15T16:56:04;4.10;99.90
2453;DHT22;63678;47.994;7.854;2023-02-15T16:58:41;6.80;99.90
2453;DHT22;63678;47.994;7.854;2023-02-15T17:01:15;6.70;99.90
2453;DHT22;63678;47.994;7.854;2023-02-15T17:03:52;6.60;99.90
2453;DHT22;63678;47.994;7.854;2023-02-15T17:07:14;6.50;99.90
2453;DHT22;63678;47.994;7.854;2023-02-15T17:09:50;6.40;99.90
2453;DHT22;63678;47.994;7.854;2023-02-15T17:12:48;6.40;99.90
2453;DHT22;63678;47.994;7.854;2023-02-15T17:15:35;6.30;99.90
2453;DHT22;63678;47.994;7.854;2023-02-15T17:18:14;6.20;99.90
2453;DHT22;63678;47.994;7.854;2023-02-15T17:20:52;6.20;99.90
2453;DHT22;63678;47.994;7.854;2023-02-15T17:23:36;6.10;99.90
2453;DHT22;63678;47.994;7.854;2023-02-15T17:26:15;6.00;99.90
2453;DHT22;63678;47.994;7.854;2023-02-15T17:28:56;5.90;99.90
2453;DHT22;63678;47.994;7.854;2023-02-15T17:31:48;5.70;99.90
2453;DHT22;63678;47.994;7.854;2023-02-15T17:37:25;5.60;99.90
2453;DHT22;63678;47.994;7.854;2023-02-15T17:40:01;5.90;99.90
2453;DHT22;63678;47.994;7.854;2023-02-15T17:42:41;6.00;99.90
2453;DHT22;63678;47.994;7.854;2023-02-15T17:45:15;6.00;99.90
2453;DHT22;63678;47.994;7.854;2023-02-15T17:47:48;6.00;99.90
2453;DHT22;63678;47.994;7.854;2023-02-15T17:50:27;6.00;99.90
2453;DHT22;63678;47.994;7.854;2023-02-15T17:53:00;6.00;99.90
2453;DHT22;63678;47.994;7.854;2023-02-15T17:58:13;5.90;99.90
2453;DHT22;63678;47.994;7.854;2023-02-15T18:00:48;5.90;99.90
2453;DHT22;63678;47.994;7.854;2023-02-15T18:03:51;5.80;99.90
2453;DHT22;63678;47.994;7.854;2023-02-15T18:06:43;5.70;99.90
2453;DHT22;63678;47.994;7.854;2023-02-15T18:09:34;5.70;99.90
2453;DHT22;63678;47.994;7.854;2023-02-15T18:12:31;5.80;99.90
2453;DHT22;63678;47.994;7.854;2023-02-15T18:15:10;6.00;99.90
2453;DHT22;63678;47.994;7.854;2023-02-15T18:17:45;6.20;99.90
2453;DHT22;63678;47.994;7.854;2023-02-15T18:20:21;6.20;99.90
2453;DHT22;63678;47.994;7.854;2023-02-15T18:22:55;6.20;99.90
2453;DHT22;63678;47.994;7.854;2023-02-15T18:25:28;6.40;99.90
2453;DHT22;63678;47.994;7.854;2023-02-15T18:28:00;6.40;99.90
2453;DHT22;63678;47.994;7.854;2023-02-15T18:30:32;6.30;99.90
2453;DHT22;63678;47.994;7.854;2023-02-15T18:33:05;6.30;99.90
2453;DHT22;63678;47.994;7.854;2023-02-15T18:38:11;5.90;99.90
2453;DHT22;63678;47.994;7.854;2023-02-15T18:40:44;5.80;99.90
2453;DHT22;63678;47.994;7.854;2023-02-15T18:45:49;5.70;99.90
2453;DHT22;63678;47.994;7.854;2023-02-15T18:50:55;5.50;99.90
2453;DHT22;63678;47.994;7.854;2023-02-15T18:56:01;5.30;99.90
2453;DHT22;63678;47.994;7.854;2023-02-15T19:01:11;5.30;99.90
2453;DHT22;63678;47.994;7.854;2023-02-15T19:03:49;5.30;99.90
2453;DHT22;63678;47.994;7.854;2023-02-15T19:06:22;5.70;99.90
2453;DHT22;63678;47.994;7.854;2023-02-15T19:08:56;6.20;99.90
2453;DHT22;63678;47.994;7.854;2023-02-15T19:11:28;6.20;99.90
2453;DHT22;63678;47.994;7.854;2023-02-15T19:14:01;6.30;99.90
2453;DHT22;63678;47.994;7.854;2023-02-15T19:16:34;6.40;99.90
2453;DHT22;63678;47.994;7.854;2023-02-15T19:21:40;6.50;99.90
2453;DHT22;63678;47.994;7.854;2023-02-15T19:24:18;6.40;99.90
2453;DHT22;63678;47.994;7.854;2023-02-15T19:26:56;6.40;99.90
2453;DHT22;63678;47.994;7.854;2023-02-15T19:29:29;8.00;99.90
2453;DHT22;63678;47.994;7.854;2023-02-15T19:32:01;7.30;99.90
2453;DHT22;63678;47.994;7.854;2023-02-15T19:34:35;6.90;99.90
2453;DHT22;63678;47.994;7.854;2023-02-15T19:37:19;6.70;99.90
2453;DHT22;63678;47.994;7.854;2023-02-15T19:42:29;6.60;99.90
2453;DHT22;63678;47.994;7.854;2023-02-15T19:45:15;6.50;99.90
2453;DHT22;63678;47.994;7.854;2023-02-15T19:47:49;6.50;99.90
2453;DHT22;63678;47.994;7.854;2023-02-15T19:50:25;6.60;99.90
2453;DHT22;63678;47.994;7.854;2023-02-15T19:53:01;6.60;99.90
2453;DHT22;63678;47.994;7.854;2023-02-15T19:55:34;6.60;99.90
2453;DHT22;63678;47.994;7.854;2023-02-15T19:58:10;6.40;99.90
2453;DHT22;63678;47.994;7.854;2023-02-15T20:00:46;6.10;99.90
2453;DHT22;63678;47.994;7.854;2023-02-15T20:03:20;5.80;99.90
2453;DHT22;63678;47.994;7.854;2023-02-15T20:05:53;5.60;99.90
2453;DHT22;63678;47.994;7.854;2023-02-15T20:08:25;5.60;99.90
2453;DHT22;63678;47.994;7.854;2023-02-15T20:10:57;5.60;99.90
2453;DHT22;63678;47.994;7.854;2023-02-15T20:13:30;5.60;99.90
2453;DHT22;63678;47.994;7.854;2023-02-15T20:16:02;5.60;99.90
2453;DHT22;63678;47.994;7.854;2023-02-15T20:18:38;5.50;99.90
2453;DHT22;63678;47.994;7.854;2023-02-15T20:21:17;5.40;99.90
2453;DHT22;63678;47.994;7.854;2023-02-15T20:23:50;5.30;99.90
2453;DHT22;63678;47.994;7.854;2023-02-15T20:26:23;5.30;99.90
2453;DHT22;63678;47.994;7.854;2023-02-15T20:29:01;5.20;99.90
2453;DHT22;63678;47.994;7.854;2023-02-15T20:31:33;5.10;99.90
2453;DHT22;63678;47.994;7.854;2023-02-15T20:34:06;5.10;99.90
2453;DHT22;63678;47.994;7.854;2023-02-15T20:36:39;5.00;99.90
2453;DHT22;63678;47.994;7.854;2023-02-15T20:39:15;5.10;99.90
2453;DHT22;63678;47.994;7.854;2023-02-15T20:41:50;5.30;99.90
2453;DHT22;63678;47.994;7.854;2023-02-15T20:44:25;5.20;99.90
2453;DHT22;63678;47.994;7.854;2023-02-15T20:46:59;5.10;99.90
2453;DHT22;63678;47.994;7.854;2023-02-15T20:49:33;5.00;99.90
2453;DHT22;63678;47.994;7.854;2023-02-15T20:52:20;4.90;99.90
2453;DHT22;63678;47.994;7.854;2023-02-15T20:54:52;4.80;99.90
2453;DHT22;63678;47.994;7.854;2023-02-15T20:57:24;4.90;99.90
2453;DHT22;63678;47.994;7.854;2023-02-15T21:02:30;5.20;99.90
2453;DHT22;63678;47.994;7.854;2023-02-15T21:07:37;5.60;99.90
2453;DHT22;63678;47.994;7.854;2023-02-15T21:10:28;5.50;99.90
2453;DHT22;63678;47.994;7.854;2023-02-15T21:13:02;5.40;99.90
2453;DHT22;63678;47.994;7.854;2023-02-15T21:15:37;5.10;99.90
2453;DHT22;63678;47.994;7.854;2023-02-15T21:18:19;5.00;99.90
2453;DHT22;63678;47.994;7.854;2023-02-15T21:20:55;4.90;99.90
2453;DHT22;63678;47.994;7.854;2023-02-15T21:23:38;5.00;99.90
2453;DHT22;63678;47.994;7.854;2023-02-15T21:26:19;4.90;99.90
2453;DHT22;63678;47.994;7.854;2023-02-15T21:28:52;4.90;99.90
2453;DHT22;63678;47.994;7.854;2023-02-15T21:31:26;4.70;99.90
2453;DHT22;63678;47.994;7.854;2023-02-15T21:33:59;4.80;99.90
2453;DHT22;63678;47.994;7.854;2023-02-15T21:36:32;4.80;99.90
2453;DHT22;63678;47.994;7.854;2023-02-15T21:39:05;4.70;99.90
2453;DHT22;63678;47.994;7.854;2023-02-15T21:41:40;4.70;99.90
2453;DHT22;63678;47.994;7.854;2023-02-15T21:44:31;4.80;99.90
2453;DHT22;63678;47.994;7.854;2023-02-15T21:47:25;4.90;99.90
2453;DHT22;63678;47.994;7.854;2023-02-15T21:50:19;4.80;99.90
2453;DHT22;63678;47.994;7.854;2023-02-15T21:53:19;4.90;99.90
2453;DHT22;63678;47.994;7.854;2023-02-15T21:55:55;4.80;99.90
2453;DHT22;63678;47.994;7.854;2023-02-15T21:58:31;4.70;99.90
2453;DHT22;63678;47.994;7.854;2023-02-15T22:01:05;4.50;99.90
2453;DHT22;63678;47.994;7.854;2023-02-15T22:03:38;4.50;99.90
2453;DHT22;63678;47.994;7.854;2023-02-15T22:06:11;4.40;99.90